createdAt,value
2022-10-21T00:02:29.609Z,0
2022-10-21T00:07:29.569Z,0
2022-10-21T00:12:29.559Z,0
2022-10-21T00:17:29.607Z,0
2022-10-21T00:22:29.606Z,0
2022-10-21T00:27:29.590Z,0
2022-10-21T00:32:29.561Z,0
2022-10-21T00:37:29.584Z,0
2022-10-21T00:42:29.555Z,0
2022-10-21T00:47:29.588Z,0
2022-10-21T00:52:29.596Z,0
2022-10-21T00:57:29.613Z,0
2022-10-21T01:02:29.576Z,0
2022-10-21T01:07:29.582Z,0
2022-10-21T01:12:29.567Z,0
2022-10-21T01:17:45.703Z,0
2022-10-21T01:22:29.560Z,0
2022-10-21T01:27:29.590Z,0
2022-10-21T01:32:29.575Z,0
2022-10-21T01:37:29.664Z,0
2022-10-21T01:42:29.558Z,0
2022-10-21T01:47:29.543Z,0
2022-10-21T01:52:29.552Z,0
2022-10-21T01:57:29.566Z,0
2022-10-21T02:02:29.550Z,0
2022-10-21T02:07:29.629Z,0
2022-10-21T02:12:29.571Z,0
2022-10-21T02:17:29.630Z,0
2022-10-21T02:22:29.560Z,0
2022-10-21T02:27:29.567Z,0
2022-10-21T02:32:29.926Z,0
2022-10-21T02:37:29.950Z,0
2022-10-21T02:42:29.816Z,0
2022-10-21T02:47:29.822Z,0
2022-10-21T02:52:29.805Z,0
2022-10-21T02:57:29.797Z,0
2022-10-21T03:02:29.779Z,0
2022-10-21T03:07:29.830Z,0
2022-10-21T03:12:29.809Z,0
2022-10-21T03:17:29.822Z,0
2022-10-21T03:22:29.778Z,0
2022-10-21T03:27:32.816Z,0
2022-10-21T03:32:29.781Z,0
2022-10-21T03:37:29.790Z,0
2022-10-21T03:42:29.767Z,0
2022-10-21T03:47:29.770Z,0
2022-10-21T03:52:29.761Z,0
2022-10-21T03:57:29.822Z,0
2022-10-21T04:02:29.801Z,0
2022-10-21T04:07:29.788Z,0
2022-10-21T04:12:29.754Z,0
2022-10-21T04:17:29.770Z,0
2022-10-21T04:22:29.755Z,0
2022-10-21T04:27:29.773Z,0
2022-10-21T04:32:29.744Z,0
2022-10-21T04:37:29.781Z,0
2022-10-21T04:42:29.778Z,0
2022-10-21T04:47:29.765Z,0
2022-10-21T04:52:29.774Z,0
2022-10-21T04:57:29.777Z,0
2022-10-21T05:02:29.777Z,0
2022-10-21T05:07:29.744Z,0
2022-10-21T05:12:29.820Z,0
2022-10-21T05:17:29.789Z,0
2022-10-21T05:22:29.770Z,0
2022-10-21T05:27:29.744Z,0
2022-10-21T05:32:29.770Z,0
2022-10-21T05:37:29.785Z,0
2022-10-21T05:42:29.724Z,0
2022-10-21T05:47:29.750Z,0
2022-10-21T05:52:29.738Z,0
2022-10-21T05:57:29.861Z,0
2022-10-21T06:02:29.737Z,0
2022-10-21T06:07:29.742Z,0
2022-10-21T06:12:29.727Z,2
2022-10-21T06:17:29.754Z,5
2022-10-21T06:22:29.760Z,5
2022-10-21T06:27:29.725Z,15
2022-10-21T06:32:29.762Z,14
2022-10-21T06:37:29.774Z,14
2022-10-21T06:42:29.742Z,15
2022-10-21T06:47:29.755Z,18
2022-10-21T06:52:29.717Z,22
2022-10-21T06:57:29.742Z,25
2022-10-21T07:02:29.985Z,27
2022-10-21T07:07:29.971Z,32
2022-10-21T07:12:29.941Z,34
2022-10-21T07:17:29.998Z,42
2022-10-21T07:22:29.973Z,50
2022-10-21T07:27:29.998Z,55
2022-10-21T07:32:29.962Z,57
2022-10-21T07:37:30.031Z,57
2022-10-21T07:42:29.986Z,57
2022-10-21T07:47:29.995Z,66
2022-10-21T07:52:30.891Z,76
2022-10-21T07:57:29.972Z,101
2022-10-21T08:02:29.961Z,118
2022-10-21T08:07:29.968Z,132
2022-10-21T08:12:29.964Z,132
2022-10-21T08:17:30.015Z,137
2022-10-21T08:22:29.974Z,133
2022-10-21T08:27:29.955Z,168
2022-10-21T08:32:29.952Z,195
2022-10-21T08:37:29.964Z,190
2022-10-21T08:42:29.964Z,199
2022-10-21T08:47:29.950Z,176
2022-10-21T08:52:29.954Z,170
2022-10-21T08:57:29.995Z,179
2022-10-21T09:02:30.037Z,196
2022-10-21T09:07:29.957Z,172
2022-10-21T09:12:29.949Z,187
2022-10-21T09:17:29.982Z,199
2022-10-21T09:22:35.105Z,211
2022-10-21T09:27:32.009Z,185
2022-10-21T09:37:31.595Z,166
2022-10-21T09:42:46.171Z,167
2022-10-21T09:47:30.259Z,161
2022-10-21T09:52:30.194Z,151
2022-10-21T09:57:30.257Z,139
2022-10-21T10:02:30.223Z,134
2022-10-21T10:07:30.216Z,134
2022-10-21T10:12:30.203Z,134
2022-10-21T10:17:30.237Z,135
2022-10-21T10:22:30.198Z,134
2022-10-21T10:27:30.231Z,127
2022-10-21T10:32:30.208Z,116
2022-10-21T10:37:30.313Z,128
2022-10-21T10:42:30.260Z,119
2022-10-21T10:47:30.212Z,120
2022-10-21T10:52:30.187Z,127
2022-10-21T10:57:35.305Z,103
2022-10-21T11:02:30.209Z,65
2022-10-21T11:07:30.165Z,57
2022-10-21T11:12:30.173Z,71
2022-10-21T11:17:30.314Z,124
2022-10-21T11:22:30.241Z,84
2022-10-21T11:27:30.199Z,44
2022-10-21T11:32:30.227Z,24
2022-10-21T11:37:30.311Z,20
2022-10-21T11:42:30.203Z,24
2022-10-21T11:47:30.182Z,32
2022-10-21T11:52:30.172Z,43
2022-10-21T11:57:30.312Z,40
2022-10-21T12:02:30.255Z,28
2022-10-21T12:07:30.209Z,26
2022-10-21T12:12:30.214Z,20
2022-10-21T12:17:30.374Z,28
2022-10-21T12:22:30.165Z,26
2022-10-21T12:27:30.172Z,22
2022-10-21T12:32:30.204Z,19
2022-10-21T12:37:30.335Z,15
2022-10-21T12:42:30.200Z,13
2022-10-21T12:47:30.197Z,22
2022-10-21T12:52:30.177Z,45
2022-10-21T12:57:30.232Z,47
2022-10-21T13:02:30.144Z,43
2022-10-21T13:07:30.165Z,38
2022-10-21T13:12:30.193Z,39
2022-10-21T13:17:30.207Z,47
2022-10-21T13:22:30.207Z,45
2022-10-21T13:27:30.252Z,34
2022-10-21T13:32:30.167Z,31
2022-10-21T13:37:30.179Z,50
2022-10-21T13:42:30.173Z,32
2022-10-21T13:47:30.208Z,16
2022-10-21T13:52:30.168Z,18
2022-10-21T13:57:30.216Z,23
2022-10-21T14:02:30.132Z,25
2022-10-21T14:07:30.142Z,35
2022-10-21T14:12:30.159Z,89
2022-10-21T14:17:30.214Z,109
2022-10-21T14:22:30.182Z,95
2022-10-21T14:27:30.173Z,93
2022-10-21T14:32:30.213Z,76
2022-10-21T14:37:30.475Z,59
2022-10-21T14:42:30.424Z,46
2022-10-21T14:47:30.407Z,55
2022-10-21T14:52:30.388Z,73
2022-10-21T14:57:30.414Z,69
2022-10-21T15:02:30.443Z,69
2022-10-21T15:07:30.439Z,56
2022-10-21T15:12:30.442Z,48
2022-10-21T15:17:30.483Z,39
2022-10-21T15:22:30.454Z,32
2022-10-21T15:27:31.937Z,22
2022-10-21T15:32:30.683Z,17
2022-10-21T15:37:30.445Z,17
2022-10-21T15:42:30.409Z,12
2022-10-21T15:47:30.422Z,10
2022-10-21T15:52:30.395Z,11
2022-10-21T15:57:30.408Z,13
2022-10-21T16:02:30.424Z,5
2022-10-21T16:07:30.387Z,1
2022-10-21T16:12:30.426Z,0
2022-10-21T16:17:30.449Z,0
2022-10-21T16:22:30.654Z,0
2022-10-21T16:27:43.671Z,0
2022-10-21T16:32:30.655Z,0
2022-10-21T16:37:30.678Z,0
2022-10-21T16:42:30.666Z,0
2022-10-21T16:47:30.923Z,0
2022-10-21T16:52:30.922Z,0
2022-10-21T16:57:30.935Z,0
2022-10-21T17:02:30.904Z,0
2022-10-21T17:07:30.885Z,0
2022-10-21T17:12:30.881Z,0
2022-10-21T17:17:30.932Z,0
2022-10-21T17:22:30.940Z,0
2022-10-21T17:27:30.882Z,0
2022-10-21T17:32:30.940Z,0
2022-10-21T17:37:30.899Z,0
2022-10-21T17:42:30.895Z,0
2022-10-21T17:47:30.916Z,0
2022-10-21T17:52:30.905Z,0
2022-10-21T17:57:30.906Z,0
2022-10-21T18:02:30.887Z,0
2022-10-21T18:07:30.896Z,0
2022-10-21T18:12:30.883Z,0
2022-10-21T18:17:30.938Z,0
2022-10-21T18:22:30.874Z,0
2022-10-21T18:27:30.958Z,0
2022-10-21T18:32:30.878Z,0
2022-10-21T18:37:30.919Z,0
2022-10-21T18:42:30.868Z,0
2022-10-21T18:47:30.870Z,0
2022-10-21T18:52:30.856Z,0
2022-10-21T18:57:30.916Z,0
2022-10-21T19:02:30.853Z,0
2022-10-21T19:07:30.855Z,0
2022-10-21T19:12:30.865Z,0
2022-10-21T19:17:31.164Z,0
2022-10-21T19:22:31.099Z,0
2022-10-21T19:27:31.118Z,0
2022-10-21T19:32:31.104Z,0
2022-10-21T19:37:31.092Z,0
2022-10-21T19:42:31.134Z,0
2022-10-21T19:47:31.101Z,0
2022-10-21T19:52:31.136Z,0
2022-10-21T19:57:31.124Z,0
2022-10-21T20:02:31.091Z,0
2022-10-21T20:07:31.103Z,0
2022-10-21T20:12:31.126Z,0
2022-10-21T20:22:31.102Z,0
2022-10-21T20:27:31.097Z,0
2022-10-21T20:32:31.095Z,0
2022-10-21T20:37:31.134Z,0
2022-10-21T20:42:31.091Z,0
2022-10-21T20:47:31.094Z,0
2022-10-21T20:52:31.115Z,0
2022-10-21T20:57:31.115Z,0
2022-10-21T21:02:31.071Z,0
2022-10-21T21:07:31.370Z,0
2022-10-21T21:12:31.313Z,0
2022-10-21T21:17:31.350Z,0
2022-10-21T21:22:31.360Z,0
2022-10-21T21:27:31.330Z,0
2022-10-21T21:32:31.352Z,0
2022-10-21T21:37:31.363Z,0
2022-10-21T21:42:31.337Z,0
2022-10-21T21:47:31.355Z,0
2022-10-21T21:52:31.324Z,0
2022-10-21T21:57:31.343Z,0
2022-10-21T22:02:31.341Z,0
2022-10-21T22:07:31.348Z,0
2022-10-21T22:12:31.341Z,0
2022-10-21T22:17:31.348Z,0
2022-10-21T22:22:31.333Z,0
2022-10-21T22:27:31.346Z,0
2022-10-21T22:32:31.317Z,0
2022-10-21T22:37:31.352Z,0
2022-10-21T22:42:31.385Z,0
2022-10-21T22:47:31.344Z,0
2022-10-21T22:52:31.303Z,0
2022-10-21T22:57:31.368Z,0
2022-10-21T23:02:31.322Z,0
2022-10-21T23:07:31.344Z,0
2022-10-21T23:12:31.318Z,0
2022-10-21T23:17:31.354Z,0
2022-10-21T23:22:31.326Z,0
2022-10-21T23:27:31.310Z,0
2022-10-21T23:32:31.295Z,0
2022-10-21T23:37:31.341Z,0
2022-10-21T23:42:31.296Z,0
2022-10-21T23:47:31.293Z,0
2022-10-21T23:52:31.312Z,0
2022-10-21T23:57:31.350Z,0
